createdAt,value
2023-04-15T00:01:10.064Z,100382.97
2023-04-15T00:03:37.546Z,100318.81
2023-04-15T00:06:04.995Z,100375.31
2023-04-15T00:08:32.115Z,100386.59
2023-04-15T00:11:03.156Z,100381.22
2023-04-15T00:13:30.530Z,100386.09
2023-04-15T00:15:58.206Z,100393.69
2023-04-15T00:18:25.765Z,100388.34
2023-04-15T00:20:53.616Z,100391.38
2023-04-15T00:23:20.941Z,100393.91
2023-04-15T00:25:47.946Z,100372.69
2023-04-15T00:28:15.197Z,100387.97
2023-04-15T00:30:43.133Z,100385.88
2023-04-15T00:33:10.884Z,100388.88
2023-04-15T00:35:38.834Z,100385.69
2023-04-15T00:38:10.208Z,100391.38
2023-04-15T00:40:38.051Z,100368.16
2023-04-15T00:43:05.761Z,100393.50
2023-04-15T00:45:33.581Z,100401.53
2023-04-15T00:48:00.910Z,100400.75
2023-04-15T00:50:28.279Z,100410.38
2023-04-15T00:52:55.534Z,100369.06
2023-04-15T00:55:22.748Z,100414.13
2023-04-15T00:57:50.784Z,100336.22
2023-04-15T01:00:18.249Z,100416.06
2023-04-15T01:02:46.591Z,100414.66
2023-04-15T01:05:13.837Z,100392.41
2023-04-15T01:07:40.983Z,100428.75
2023-04-15T01:10:08.749Z,100427.41
2023-04-15T01:12:37.958Z,100398.22
2023-04-15T01:15:05.976Z,100433.41
2023-04-15T01:17:33.940Z,100426.28
2023-04-15T01:20:01.412Z,100429.22
2023-04-15T01:22:31.691Z,100396.56
2023-04-15T01:25:09.992Z,100414.59
2023-04-15T01:27:40.058Z,100424.50
2023-04-15T01:30:08.991Z,100432.56
2023-04-15T01:32:36.481Z,100442.72
2023-04-15T01:35:22.621Z,100420.16
2023-04-15T01:37:51.917Z,100439.41
2023-04-15T01:40:19.093Z,100447.00
2023-04-15T01:42:47.511Z,100442.28
2023-04-15T01:45:17.729Z,100343.22
2023-04-15T01:47:46.221Z,100439.28
2023-04-15T01:50:15.381Z,100448.03
2023-04-15T01:52:43.721Z,100412.66
2023-04-15T01:55:13.415Z,100433.00
2023-04-15T01:57:42.433Z,100425.00
2023-04-15T02:00:11.785Z,100435.22
2023-04-15T02:02:43.855Z,100467.81
2023-04-15T02:05:12.366Z,100426.56
2023-04-15T02:07:40.688Z,100467.28
2023-04-15T02:10:11.841Z,100478.78
2023-04-15T02:12:40.773Z,100396.59
2023-04-15T02:15:10.495Z,100425.63
2023-04-15T02:17:38.871Z,100457.38
2023-04-15T02:20:09.499Z,100461.13
2023-04-15T02:22:37.897Z,100460.22
2023-04-15T02:25:07.213Z,100453.03
2023-04-15T02:27:38.882Z,100478.59
2023-04-15T02:30:08.098Z,100456.38
2023-04-15T02:32:38.220Z,100478.16
2023-04-15T02:35:08.903Z,100467.75
2023-04-15T02:37:43.517Z,100485.38
2023-04-15T02:40:13.536Z,100483.75
2023-04-15T02:42:42.949Z,100472.50
2023-04-15T02:45:13.954Z,100475.47
2023-04-15T02:47:44.085Z,100474.69
2023-04-15T02:50:13.818Z,100425.22
2023-04-15T02:52:43.550Z,100444.41
2023-04-15T02:55:12.880Z,100422.09
2023-04-15T02:57:41.638Z,100421.19
2023-04-15T03:00:12.411Z,100478.06
2023-04-15T03:02:44.827Z,100471.38
2023-04-15T03:05:14.923Z,100480.34
2023-04-15T03:07:51.127Z,100454.38
2023-04-15T03:10:20.934Z,100475.75
2023-04-15T03:12:49.398Z,100472.59
2023-04-15T03:15:20.481Z,100487.53
2023-04-15T03:17:52.305Z,100484.50
2023-04-15T03:20:21.023Z,100484.81
2023-04-15T03:22:50.364Z,100466.84
2023-04-15T03:25:20.515Z,100489.44
2023-04-15T03:27:48.848Z,100478.78
2023-04-15T03:30:18.246Z,100457.66
2023-04-15T03:32:47.319Z,100475.97
2023-04-15T03:35:16.149Z,100467.03
2023-04-15T03:37:44.521Z,100478.81
2023-04-15T03:40:13.132Z,100487.66
2023-04-15T03:42:41.716Z,100474.84
2023-04-15T03:45:11.007Z,100492.13
2023-04-15T03:47:39.548Z,100459.63
2023-04-15T03:50:08.466Z,100517.41
2023-04-15T03:52:36.895Z,100502.88
2023-04-15T03:55:05.610Z,100436.28
2023-04-15T03:57:38.211Z,100459.72
2023-04-15T04:00:07.438Z,100499.72
2023-04-15T04:02:40.138Z,100516.72
2023-04-15T04:05:09.040Z,100524.50
2023-04-15T04:07:37.562Z,100508.94
2023-04-15T04:10:06.545Z,100508.94
2023-04-15T04:12:34.908Z,100549.00
2023-04-15T04:15:03.604Z,100464.88
2023-04-15T04:17:31.961Z,100541.75
2023-04-15T04:20:00.363Z,100494.22
2023-04-15T04:22:28.859Z,100522.84
2023-04-15T04:24:59.468Z,100540.03
2023-04-15T04:27:27.914Z,100491.38
2023-04-15T04:29:56.617Z,100548.06
2023-04-15T04:32:25.102Z,100487.25
2023-04-15T04:34:53.554Z,100532.91
2023-04-15T04:37:23.381Z,100543.28
2023-04-15T04:39:51.824Z,100545.38
2023-04-15T04:42:20.504Z,100547.53
2023-04-15T04:44:48.933Z,100549.72
2023-04-15T04:47:17.340Z,100540.72
2023-04-15T04:49:45.901Z,100555.19
2023-04-15T04:52:31.992Z,100535.34
2023-04-15T04:55:00.496Z,100536.56
2023-04-15T04:57:28.871Z,100540.13
2023-04-15T04:59:57.695Z,100582.31
2023-04-15T05:02:27.816Z,100569.56
2023-04-15T05:04:56.375Z,100576.78
2023-04-15T05:07:24.885Z,100503.69
2023-04-15T05:09:53.266Z,100512.78
2023-04-15T05:12:21.763Z,100573.56
2023-04-15T05:14:50.129Z,100529.56
2023-04-15T05:17:18.595Z,100577.25
2023-04-15T05:19:46.976Z,100565.16
2023-04-15T05:22:15.640Z,100542.00
2023-04-15T05:24:44.019Z,100505.44
2023-04-15T05:27:12.594Z,100550.72
2023-04-15T05:29:41.011Z,100586.22
2023-04-15T05:32:09.458Z,100594.38
2023-04-15T05:34:37.950Z,100596.25
2023-04-15T05:37:06.322Z,100604.09
2023-04-15T05:39:34.773Z,100545.50
2023-04-15T05:42:03.648Z,100555.47
2023-04-15T05:44:32.231Z,100596.59
2023-04-15T05:47:00.918Z,100532.69
2023-04-15T05:49:29.941Z,100555.16
2023-04-15T05:51:58.383Z,100589.03
2023-04-15T05:54:27.991Z,100603.84
2023-04-15T05:56:57.872Z,100570.72
2023-04-15T05:59:26.304Z,100534.00
2023-04-15T06:01:54.671Z,100593.31
2023-04-15T06:04:23.192Z,100581.13
2023-04-15T06:06:51.660Z,100615.81
2023-04-15T06:09:20.397Z,100594.91
2023-04-15T06:11:49.152Z,100612.75
2023-04-15T06:14:17.499Z,100554.41
2023-04-15T06:16:45.899Z,100583.56
2023-04-15T06:19:14.882Z,100607.09
2023-04-15T06:21:43.764Z,100598.63
2023-04-15T06:24:12.640Z,100613.03
2023-04-15T06:26:41.123Z,100621.00
2023-04-15T06:29:09.398Z,100618.91
2023-04-15T06:31:37.772Z,100596.13
2023-04-15T06:34:06.356Z,100609.19
2023-04-15T06:36:34.792Z,100608.63
2023-04-15T06:39:03.944Z,100629.25
2023-04-15T06:41:33.145Z,100635.47
2023-04-15T06:44:01.601Z,100614.53
2023-04-15T06:46:29.871Z,100618.03
2023-04-15T06:48:58.277Z,100647.09
2023-04-15T06:51:27.204Z,100658.56
2023-04-15T06:53:55.628Z,100655.69
2023-04-15T06:56:24.140Z,100646.16
2023-04-15T06:58:52.704Z,100657.94
2023-04-15T07:01:21.580Z,100653.34
2023-04-15T07:03:50.030Z,100648.19
2023-04-15T07:06:18.535Z,100644.34
2023-04-15T07:08:46.972Z,100657.88
2023-04-15T07:11:15.481Z,100654.31
2023-04-15T07:13:43.868Z,100665.72
2023-04-15T07:16:12.413Z,100635.38
2023-04-15T07:18:40.842Z,100626.31
2023-04-15T07:21:09.343Z,100631.44
2023-04-15T07:23:37.743Z,100648.91
2023-04-15T07:26:06.186Z,100645.25
2023-04-15T07:28:34.583Z,100627.97
2023-04-15T07:31:03.073Z,100630.44
2023-04-15T07:33:31.612Z,100600.72
2023-04-15T07:36:00.160Z,100628.09
2023-04-15T07:38:28.658Z,100632.13
2023-04-15T07:40:57.108Z,100640.28
2023-04-15T07:43:25.681Z,100621.44
2023-04-15T07:45:54.168Z,100617.31
2023-04-15T07:48:22.593Z,100642.94
2023-04-15T07:50:51.013Z,100572.19
2023-04-15T07:53:19.337Z,100656.59
2023-04-15T07:55:47.672Z,100543.13
2023-04-15T07:58:16.481Z,100632.50
2023-04-15T08:00:44.815Z,100647.25
2023-04-15T08:03:13.510Z,100651.19
2023-04-15T08:05:42.113Z,100658.25
2023-04-15T08:08:10.497Z,100650.72
2023-04-15T08:10:38.901Z,100645.25
2023-04-15T08:13:07.984Z,100616.28
2023-04-15T08:15:36.581Z,100657.31
2023-04-15T08:18:05.037Z,100573.03
2023-04-15T08:20:33.475Z,100655.00
2023-04-15T08:23:02.149Z,100585.31
2023-04-15T08:25:30.559Z,100641.28
2023-04-15T08:27:58.903Z,100640.28
2023-04-15T08:30:28.130Z,100626.91
2023-04-15T08:32:56.799Z,100635.78
2023-04-15T08:35:25.230Z,100613.06
2023-04-15T08:37:53.642Z,100597.41
2023-04-15T08:40:27.498Z,100634.47
2023-04-15T08:42:57.784Z,100523.00
2023-04-15T08:45:26.519Z,100634.44
2023-04-15T08:47:56.833Z,100627.72
2023-04-15T08:50:26.392Z,100626.41
2023-04-15T08:52:56.547Z,100618.59
2023-04-15T08:55:29.757Z,100613.91
2023-04-15T08:57:58.391Z,100614.69
2023-04-15T09:00:27.208Z,100565.63
2023-04-15T09:02:57.056Z,100609.16
2023-04-15T09:05:25.897Z,100632.94
2023-04-15T09:07:54.350Z,100555.16
2023-04-15T09:10:23.335Z,100495.13
2023-04-15T09:12:51.962Z,100606.19
2023-04-15T09:15:21.026Z,100616.13
2023-04-15T09:17:49.383Z,100616.91
2023-04-15T09:20:20.449Z,100472.16
2023-04-15T09:22:50.272Z,100615.59
2023-04-15T09:25:24.967Z,100618.25
2023-04-15T09:27:59.796Z,100621.09
2023-04-15T09:30:29.717Z,100617.22
2023-04-15T09:33:00.800Z,100626.38
2023-04-15T09:35:29.306Z,100593.53
2023-04-15T09:38:15.812Z,100624.56
2023-04-15T09:40:44.226Z,100604.47
2023-04-15T09:43:16.960Z,100613.09
2023-04-15T09:45:50.450Z,100611.75
2023-04-15T09:48:21.276Z,100601.53
2023-04-15T09:50:50.581Z,100596.06
2023-04-15T09:53:23.932Z,100577.19
2023-04-15T09:55:54.785Z,100587.88
2023-04-15T09:58:28.523Z,100578.94
2023-04-15T10:00:58.616Z,100579.16
2023-04-15T10:03:28.964Z,100578.59
2023-04-15T10:05:59.826Z,100575.09
2023-04-15T10:08:30.414Z,100524.25
2023-04-15T10:10:59.127Z,100557.34
2023-04-15T10:13:33.471Z,100568.22
2023-04-15T10:16:12.247Z,100566.13
2023-04-15T10:18:45.789Z,100561.88
2023-04-15T10:21:18.580Z,100568.28
2023-04-15T10:23:47.885Z,100573.16
2023-04-15T10:26:17.845Z,100571.88
2023-04-15T10:28:49.547Z,100506.97
2023-04-15T10:31:18.715Z,100500.81
2023-04-15T10:33:49.009Z,100564.03
2023-04-15T10:36:19.300Z,100545.03
2023-04-15T10:38:47.750Z,100409.44
2023-04-15T10:41:28.210Z,100552.22
2023-04-15T10:44:01.495Z,100558.88
2023-04-15T10:46:47.532Z,100563.03
2023-04-15T10:49:17.891Z,100535.16
2023-04-15T10:51:51.277Z,100558.22
2023-04-15T10:54:25.710Z,100564.66
2023-04-15T10:57:23.702Z,100535.03
2023-04-15T10:59:58.910Z,100571.66
2023-04-15T11:02:43.872Z,100565.63
2023-04-15T11:05:13.852Z,100572.19
2023-04-15T11:07:49.984Z,100577.44
2023-04-15T11:10:18.412Z,100590.53
2023-04-15T11:12:48.360Z,100581.22
2023-04-15T11:15:31.382Z,100567.13
2023-04-15T11:18:13.188Z,100579.59
2023-04-15T11:20:47.493Z,100569.00
2023-04-15T11:23:17.132Z,100584.13
2023-04-15T11:25:46.422Z,100583.09
2023-04-15T11:28:15.076Z,100534.38
2023-04-15T11:30:44.025Z,100587.78
2023-04-15T11:33:14.095Z,100589.41
2023-04-15T11:35:43.099Z,100580.50
2023-04-15T11:38:14.102Z,100589.44
2023-04-15T11:40:46.206Z,100571.13
2023-04-15T11:43:21.241Z,100581.28
2023-04-15T11:46:01.217Z,100558.88
2023-04-15T11:48:35.374Z,100576.50
2023-04-15T11:51:06.039Z,100579.44
2023-04-15T11:53:47.558Z,100534.53
2023-04-15T11:56:20.432Z,100562.84
2023-04-15T11:58:48.477Z,100562.56
2023-04-15T12:01:15.631Z,100531.16
2023-04-15T12:03:47.320Z,100559.16
2023-04-15T12:06:23.594Z,100556.06
2023-04-15T12:08:59.118Z,100556.66
2023-04-15T12:11:33.641Z,100551.75
2023-04-15T12:14:11.304Z,100545.59
2023-04-15T12:17:03.143Z,100547.75
2023-04-15T12:19:42.094Z,100550.19
2023-04-15T12:22:11.036Z,100554.56
2023-04-15T12:24:39.473Z,100541.28
2023-04-15T12:27:08.910Z,100542.69
2023-04-15T12:29:38.496Z,100554.69
2023-04-15T12:32:09.529Z,100541.81
2023-04-15T12:34:45.757Z,100546.28
2023-04-15T12:37:14.470Z,100542.22
2023-04-15T12:39:43.918Z,100528.59
2023-04-15T12:42:12.127Z,100506.50
2023-04-15T12:44:40.307Z,100540.81
2023-04-15T12:47:09.142Z,100546.13
2023-04-15T12:49:36.433Z,100513.06
2023-04-15T12:52:04.163Z,100521.00
2023-04-15T12:54:32.330Z,100521.09
2023-04-15T12:57:00.004Z,100540.34
2023-04-15T12:59:27.325Z,100546.59
2023-04-15T13:01:54.822Z,100512.19
2023-04-15T13:04:22.758Z,100525.69
2023-04-15T13:06:50.318Z,100506.44
2023-04-15T13:09:17.527Z,100541.47
2023-04-15T13:11:44.838Z,100434.34
2023-04-15T13:14:13.358Z,100540.13
2023-04-15T13:16:41.049Z,100497.69
2023-04-15T13:19:08.331Z,100548.47
2023-04-15T13:21:36.402Z,100538.09
2023-04-15T13:24:05.092Z,100517.56
2023-04-15T13:26:33.009Z,100539.34
2023-04-15T13:29:00.783Z,100535.84
2023-04-15T13:31:28.188Z,100506.19
2023-04-15T13:33:57.155Z,100530.91
2023-04-15T13:36:24.404Z,100530.06
2023-04-15T13:38:52.089Z,100533.09
2023-04-15T13:41:20.152Z,100539.88
2023-04-15T13:43:47.486Z,100544.00
2023-04-15T13:46:15.069Z,100476.88
2023-04-15T13:48:42.469Z,100513.28
2023-04-15T13:51:09.985Z,100538.00
2023-04-15T13:53:38.195Z,100547.84
2023-04-15T13:56:08.445Z,100549.38
2023-04-15T13:58:36.594Z,100549.81
2023-04-15T14:01:05.835Z,100518.53
2023-04-15T14:03:34.982Z,100548.63
2023-04-15T14:06:02.538Z,100527.41
2023-04-15T14:08:30.330Z,100556.44
2023-04-15T14:10:57.950Z,100479.84
2023-04-15T14:13:25.350Z,100526.22
2023-04-15T14:15:52.686Z,100554.47
2023-04-15T14:18:20.093Z,100555.44
2023-04-15T14:20:47.392Z,100534.72
2023-04-15T14:23:15.846Z,100511.50
2023-04-15T14:25:43.018Z,100493.00
2023-04-15T14:28:10.459Z,100549.69
2023-04-15T14:30:37.691Z,100537.47
2023-04-15T14:33:04.934Z,100569.00
2023-04-15T14:35:32.668Z,100519.59
2023-04-15T14:37:59.850Z,100521.47
2023-04-15T14:40:27.224Z,100533.75
2023-04-15T14:42:54.359Z,100523.91
2023-04-15T14:45:21.584Z,100518.22
2023-04-15T14:47:48.925Z,100481.97
2023-04-15T14:50:16.163Z,100531.53
2023-04-15T14:52:43.236Z,100529.34
2023-04-15T14:55:11.631Z,100545.75
2023-04-15T14:57:40.090Z,100533.03
2023-04-15T15:00:08.396Z,100529.56
2023-04-15T15:02:39.619Z,100533.03
2023-04-15T15:05:08.467Z,100498.69
2023-04-15T15:07:39.462Z,100499.25
2023-04-15T15:10:07.449Z,100534.88
2023-04-15T15:12:34.779Z,100490.88
2023-04-15T15:15:09.550Z,100533.66
2023-04-15T15:17:39.852Z,100530.50
2023-04-15T15:20:07.857Z,100529.13
2023-04-15T15:22:35.050Z,100489.81
2023-04-15T15:25:02.432Z,100502.44
2023-04-15T15:27:29.681Z,100525.53
2023-04-15T15:29:57.108Z,100488.41
2023-04-15T15:32:24.438Z,100529.81
2023-04-15T15:34:51.886Z,100498.78
2023-04-15T15:37:19.083Z,100532.25
2023-04-15T15:39:46.297Z,100530.53
2023-04-15T15:42:13.505Z,100501.03
2023-04-15T15:44:40.685Z,100530.25
2023-04-15T15:47:07.972Z,100530.34
2023-04-15T15:49:35.287Z,100531.28
2023-04-15T15:52:02.496Z,100501.59
2023-04-15T15:54:29.929Z,100528.03
2023-04-15T15:56:57.669Z,100532.72
2023-04-15T15:59:25.687Z,100520.47
2023-04-15T16:01:53.334Z,100533.72
2023-04-15T16:04:21.068Z,100530.78
2023-04-15T16:06:48.858Z,100529.88
2023-04-15T16:09:16.283Z,100534.41
2023-04-15T16:11:47.446Z,100536.22
2023-04-15T16:14:14.725Z,100541.06
2023-04-15T16:16:42.133Z,100516.16
2023-04-15T16:19:09.315Z,100510.81
2023-04-15T16:21:36.750Z,100535.66
2023-04-15T16:24:04.075Z,100534.25
2023-04-15T16:26:31.547Z,100538.94
2023-04-15T16:28:58.818Z,100535.56
2023-04-15T16:31:26.162Z,100543.94
2023-04-15T16:33:53.425Z,100511.19
2023-04-15T16:36:20.776Z,100548.00
2023-04-15T16:38:48.914Z,100507.69
2023-04-15T16:41:16.483Z,100537.06
2023-04-15T16:43:43.685Z,100485.19
2023-04-15T16:46:10.951Z,100537.56
2023-04-15T16:48:38.216Z,100525.59
2023-04-15T16:51:05.620Z,100528.25
2023-04-15T16:53:32.691Z,100551.50
2023-04-15T16:55:59.815Z,100496.44
2023-04-15T16:58:28.064Z,100545.31
2023-04-15T17:00:55.305Z,100511.78
2023-04-15T17:03:22.623Z,100538.16
2023-04-15T17:05:49.839Z,100560.38
2023-04-15T17:08:17.127Z,100564.97
2023-04-15T17:10:44.264Z,100519.31
2023-04-15T17:13:11.469Z,100554.72
2023-04-15T17:15:38.731Z,100590.03
2023-04-15T17:18:22.117Z,100589.69
2023-04-15T17:20:56.594Z,100595.44
2023-04-15T17:23:26.240Z,100591.03
2023-04-15T17:25:53.940Z,100543.19
2023-04-15T17:28:21.243Z,100607.91
2023-04-15T17:30:49.587Z,100549.28
2023-04-15T17:34:00.813Z,100610.06
2023-04-15T17:36:44.031Z,100606.19
2023-04-15T17:39:12.038Z,100616.13
2023-04-15T17:41:59.153Z,100557.75
2023-04-15T17:44:46.356Z,100591.44
2023-04-15T17:47:33.541Z,100625.38
2023-04-15T17:50:20.793Z,100597.00
2023-04-15T17:53:07.957Z,100643.44
2023-04-15T17:55:55.794Z,100627.81
2023-04-15T17:58:43.664Z,100648.16
2023-04-15T18:01:30.944Z,100654.72
2023-04-15T18:04:18.226Z,100663.38
2023-04-15T18:07:06.182Z,100634.97
2023-04-15T18:09:56.020Z,100669.13
2023-04-15T18:12:43.169Z,100669.66
2023-04-15T18:15:31.421Z,100671.00
2023-04-15T18:18:18.681Z,100652.72
2023-04-15T18:21:00.535Z,100643.59
2023-04-15T18:23:27.946Z,100672.88
2023-04-15T18:25:55.412Z,100675.00
2023-04-15T18:28:22.976Z,100632.03
2023-04-15T18:30:50.149Z,100669.66
2023-04-15T18:33:17.363Z,100686.09
2023-04-15T18:35:44.563Z,100690.03
2023-04-15T18:38:11.923Z,100669.69
2023-04-15T18:40:39.062Z,100653.22
2023-04-15T18:43:06.205Z,100691.09
2023-04-15T18:45:33.381Z,100680.94
2023-04-15T18:48:00.515Z,100557.25
2023-04-15T18:50:27.770Z,100719.34
2023-04-15T18:52:54.984Z,100630.84
2023-04-15T18:55:22.929Z,100698.22
2023-04-15T18:57:50.193Z,100681.78
2023-04-15T19:00:18.482Z,100684.66
2023-04-15T19:02:45.799Z,100678.91
2023-04-15T19:05:13.074Z,100674.19
2023-04-15T19:07:41.253Z,100721.22
2023-04-15T19:10:08.649Z,100701.91
2023-04-15T19:12:36.731Z,100680.47
2023-04-15T19:15:04.946Z,100670.03
2023-04-15T19:17:32.269Z,100690.41
2023-04-15T19:19:59.466Z,100700.56
2023-04-15T19:22:27.222Z,100699.53
2023-04-15T19:24:54.565Z,100711.81
2023-04-15T19:27:21.728Z,100684.66
2023-04-15T19:29:49.236Z,100723.28
2023-04-15T19:32:16.459Z,100624.28
2023-04-15T19:34:43.574Z,100709.22
2023-04-15T19:37:11.469Z,100706.84
2023-04-15T19:39:38.664Z,100668.97
2023-04-15T19:42:05.827Z,100704.75
2023-04-15T19:44:33.145Z,100709.97
2023-04-15T19:47:00.361Z,100657.97
2023-04-15T19:49:27.738Z,100700.84
2023-04-15T19:51:55.075Z,100706.06
2023-04-15T19:54:22.871Z,100694.03
2023-04-15T19:56:50.024Z,100685.69
2023-04-15T19:59:17.353Z,100695.63
2023-04-15T20:01:44.536Z,100730.34
2023-04-15T20:04:11.822Z,100698.47
2023-04-15T20:06:39.053Z,100690.91
2023-04-15T20:09:07.055Z,100715.19
2023-04-15T20:12:06.131Z,100719.34
2023-04-15T20:14:22.596Z,100699.44
2023-04-15T20:16:49.793Z,100718.84
2023-04-15T20:19:17.126Z,100689.28
2023-04-15T20:21:44.438Z,100722.22
2023-04-15T20:24:11.558Z,100585.03
2023-04-15T20:26:38.639Z,100737.91
2023-04-15T20:29:06.298Z,100723.00
2023-04-15T20:31:34.196Z,100739.97
2023-04-15T20:34:01.486Z,100735.75
2023-04-15T20:36:28.630Z,100733.97
2023-04-15T20:38:55.860Z,100736.56
2023-04-15T20:41:23.423Z,100742.56
2023-04-15T20:43:50.594Z,100680.34
2023-04-15T20:46:21.566Z,100720.03
2023-04-15T20:48:48.938Z,100583.03
2023-04-15T20:51:16.220Z,100758.69
2023-04-15T20:53:43.520Z,100755.56
2023-04-15T20:56:11.828Z,100709.75
2023-04-15T20:58:39.503Z,100750.97
2023-04-15T21:01:06.818Z,100746.53
2023-04-15T21:03:34.160Z,100754.94
2023-04-15T21:06:01.410Z,100690.03
2023-04-15T21:08:31.769Z,100755.44
2023-04-15T21:10:58.979Z,100753.59
2023-04-15T21:13:26.303Z,100751.25
2023-04-15T21:15:54.469Z,100709.88
2023-04-15T21:18:22.520Z,100755.63
2023-04-15T21:20:59.706Z,100753.75
2023-04-15T21:23:31.430Z,100747.69
2023-04-15T21:25:59.074Z,100770.94
2023-04-15T21:28:28.164Z,100768.56
2023-04-15T21:30:56.434Z,100772.47
2023-04-15T21:33:24.233Z,100765.41
2023-04-15T21:35:51.639Z,100776.00
2023-04-15T21:38:19.934Z,100768.06
2023-04-15T21:40:50.452Z,100767.78
2023-04-15T21:43:17.636Z,100760.72
2023-04-15T21:46:22.477Z,100763.34
2023-04-15T21:48:31.970Z,100764.41
2023-04-15T21:51:00.091Z,100739.81
2023-04-15T21:53:28.076Z,100770.91
2023-04-15T21:55:55.290Z,100758.66
2023-04-15T21:58:22.511Z,100762.03
2023-04-15T22:00:49.781Z,100746.81
2023-04-15T22:03:17.207Z,100752.09
2023-04-15T22:05:47.697Z,100753.38
2023-04-15T22:08:14.892Z,100771.09
2023-04-15T22:10:42.105Z,100759.38
2023-04-15T22:13:11.117Z,100737.63
2023-04-15T22:15:38.246Z,100764.50
2023-04-15T22:18:06.071Z,100691.22
2023-04-15T22:20:33.378Z,100784.56
2023-04-15T22:23:00.528Z,100761.63
2023-04-15T22:25:27.704Z,100737.50
2023-04-15T22:27:54.847Z,100773.00
2023-04-15T22:30:22.133Z,100753.13
2023-04-15T22:32:49.429Z,100750.28
2023-04-15T22:35:16.646Z,100776.13
2023-04-15T22:37:43.837Z,100718.47
2023-04-15T22:40:11.658Z,100768.72
2023-04-15T22:42:38.760Z,100771.88
2023-04-15T22:45:06.636Z,100766.69
2023-04-15T22:47:33.824Z,100773.75
2023-04-15T22:50:01.006Z,100723.47
2023-04-15T22:52:30.938Z,100771.31
2023-04-15T22:54:59.076Z,100772.34
2023-04-15T22:57:27.968Z,100778.50
2023-04-15T22:59:55.410Z,100766.50
2023-04-15T23:02:22.770Z,100772.78
2023-04-15T23:04:50.129Z,100775.16
2023-04-15T23:07:17.463Z,100729.06
2023-04-15T23:09:44.692Z,100767.06
2023-04-15T23:12:12.072Z,100725.72
2023-04-15T23:14:39.269Z,100773.06
2023-04-15T23:17:06.396Z,100770.44
2023-04-15T23:19:33.609Z,100775.88
2023-04-15T23:22:01.007Z,100728.34
2023-04-15T23:24:28.094Z,100753.44
2023-04-15T23:26:55.482Z,100764.19
2023-04-15T23:29:22.629Z,100763.91
2023-04-15T23:31:49.982Z,100764.38
2023-04-15T23:34:17.292Z,100723.38
2023-04-15T23:36:44.566Z,100723.97
2023-04-15T23:39:11.909Z,100743.84
2023-04-15T23:41:39.215Z,100675.66
2023-04-15T23:44:06.499Z,100732.25
2023-04-15T23:46:33.745Z,100728.28
2023-04-15T23:49:01.222Z,100735.41
2023-04-15T23:51:28.384Z,100739.84
2023-04-15T23:53:55.670Z,100724.97
2023-04-15T23:56:22.867Z,100710.22
2023-04-15T23:58:50.071Z,100721.16
